sensor_id;sensor_type;location;lat;lon;timestamp;pressure;altitude;pressure_sealevel;temperature;humidity
77240;BME280;66258;53.170;-2.240;2023-12-29T00:00:01;98772.34;;;16.33;61.98
77240;BME280;66258;53.170;-2.240;2023-12-29T00:02:29;98771.13;;;16.40;62.41
77240;BME280;66258;53.170;-2.240;2023-12-29T00:04:59;98772.47;;;16.26;62.09
77240;BME280;66258;53.170;-2.240;2023-12-29T00:07:27;98779.59;;;16.04;62.22
77240;BME280;66258;53.170;-2.240;2023-12-29T00:09:55;98784.28;;;16.55;62.45
77240;BME280;66258;53.170;-2.240;2023-12-29T00:12:23;98794.53;;;16.25;61.92
77240;BME280;66258;53.170;-2.240;2023-12-29T00:14:50;98796.50;;;16.64;60.69
77240;BME280;66258;53.170;-2.240;2023-12-29T00:17:18;98794.16;;;16.84;60.04
77240;BME280;66258;53.170;-2.240;2023-12-29T00:19:46;98807.94;;;16.90;59.64
77240;BME280;66258;53.170;-2.240;2023-12-29T00:22:16;98819.13;;;16.36;61.76
77240;BME280;66258;53.170;-2.240;2023-12-29T00:24:44;98801.31;;;16.22;62.52
77240;BME280;66258;53.170;-2.240;2023-12-29T00:27:11;98807.47;;;16.41;62.18
77240;BME280;66258;53.170;-2.240;2023-12-29T00:29:39;98800.16;;;16.18;63.49
77240;BME280;66258;53.170;-2.240;2023-12-29T00:32:07;98801.94;;;15.77;64.54
77240;BME280;66258;53.170;-2.240;2023-12-29T00:34:34;98799.66;;;16.09;63.58
77240;BME280;66258;53.170;-2.240;2023-12-29T00:37:02;98792.56;;;15.97;66.03
77240;BME280;66258;53.170;-2.240;2023-12-29T00:39:32;98786.50;;;16.06;65.01
77240;BME280;66258;53.170;-2.240;2023-12-29T00:42:00;98787.69;;;16.62;63.74
77240;BME280;66258;53.170;-2.240;2023-12-29T00:44:27;98789.38;;;16.92;62.45
77240;BME280;66258;53.170;-2.240;2023-12-29T00:46:56;98789.25;;;16.98;61.79
77240;BME280;66258;53.170;-2.240;2023-12-29T00:49:23;98783.03;;;16.74;63.09
77240;BME280;66258;53.170;-2.240;2023-12-29T00:51:52;98783.50;;;16.83;62.76
77240;BME280;66258;53.170;-2.240;2023-12-29T00:54:20;98789.59;;;16.73;62.48
77240;BME280;66258;53.170;-2.240;2023-12-29T00:56:52;98777.09;;;16.37;62.65
77240;BME280;66258;53.170;-2.240;2023-12-29T00:59:21;98792.88;;;16.24;64.32
77240;BME280;66258;53.170;-2.240;2023-12-29T01:01:48;98784.16;;;15.98;64.75
77240;BME280;66258;53.170;-2.240;2023-12-29T01:04:15;98777.50;;;15.71;66.31
77240;BME280;66258;53.170;-2.240;2023-12-29T01:06:44;98773.31;;;16.15;67.18
77240;BME280;66258;53.170;-2.240;2023-12-29T01:09:12;98762.78;;;15.95;67.24
77240;BME280;66258;53.170;-2.240;2023-12-29T01:11:40;98781.13;;;15.53;68.24
77240;BME280;66258;53.170;-2.240;2023-12-29T01:14:08;98766.59;;;15.94;66.86
77240;BME280;66258;53.170;-2.240;2023-12-29T01:16:35;98776.53;;;15.89;66.99
77240;BME280;66258;53.170;-2.240;2023-12-29T01:19:02;98767.25;;;16.25;66.22
77240;BME280;66258;53.170;-2.240;2023-12-29T01:21:33;98770.13;;;15.83;67.40
77240;BME280;66258;53.170;-2.240;2023-12-29T01:24:00;98774.41;;;15.67;67.46
77240;BME280;66258;53.170;-2.240;2023-12-29T01:26:28;98764.56;;;15.90;65.54
77240;BME280;66258;53.170;-2.240;2023-12-29T01:28:56;98767.28;;;15.66;65.41
77240;BME280;66258;53.170;-2.240;2023-12-29T01:31:28;98759.44;;;15.35;67.46
77240;BME280;66258;53.170;-2.240;2023-12-29T01:33:57;98761.88;;;15.13;69.66
77240;BME280;66258;53.170;-2.240;2023-12-29T01:36:24;98777.03;;;15.97;66.20
77240;BME280;66258;53.170;-2.240;2023-12-29T01:38:52;98761.84;;;15.90;65.79
77240;BME280;66258;53.170;-2.240;2023-12-29T01:41:20;98760.78;;;15.56;66.13
77240;BME280;66258;53.170;-2.240;2023-12-29T01:44:17;98761.84;;;15.78;65.72
77240;BME280;66258;53.170;-2.240;2023-12-29T01:46:49;98765.84;;;16.10;64.65
77240;BME280;66258;53.170;-2.240;2023-12-29T01:49:18;98772.41;;;15.98;63.93
77240;BME280;66258;53.170;-2.240;2023-12-29T01:51:49;98768.94;;;16.94;61.56
77240;BME280;66258;53.170;-2.240;2023-12-29T01:54:19;98770.38;;;15.81;63.30
77240;BME280;66258;53.170;-2.240;2023-12-29T01:56:49;98765.84;;;16.62;61.32
77240;BME280;66258;53.170;-2.240;2023-12-29T01:59:19;98763.63;;;15.72;63.76
77240;BME280;66258;53.170;-2.240;2023-12-29T02:01:54;98762.19;;;15.93;63.19
77240;BME280;66258;53.170;-2.240;2023-12-29T02:04:24;98768.66;;;16.27;62.50
77240;BME280;66258;53.170;-2.240;2023-12-29T02:06:52;98777.25;;;16.19;62.14
77240;BME280;66258;53.170;-2.240;2023-12-29T02:09:20;98782.13;;;15.94;62.83
77240;BME280;66258;53.170;-2.240;2023-12-29T02:11:48;98782.34;;;16.04;62.82
77240;BME280;66258;53.170;-2.240;2023-12-29T02:14:17;98784.03;;;15.93;63.63
77240;BME280;66258;53.170;-2.240;2023-12-29T02:16:49;98789.47;;;16.05;63.21
77240;BME280;66258;53.170;-2.240;2023-12-29T02:19:29;98795.00;;;16.33;62.90
77240;BME280;66258;53.170;-2.240;2023-12-29T02:22:04;98792.22;;;16.57;62.80
77240;BME280;66258;53.170;-2.240;2023-12-29T02:24:33;98797.78;;;15.87;64.00
77240;BME280;66258;53.170;-2.240;2023-12-29T02:27:09;98797.47;;;15.30;66.30
77240;BME280;66258;53.170;-2.240;2023-12-29T02:29:40;98782.91;;;15.36;66.37
77240;BME280;66258;53.170;-2.240;2023-12-29T02:32:14;98798.38;;;15.89;65.30
77240;BME280;66258;53.170;-2.240;2023-12-29T02:34:45;98800.28;;;15.88;64.56
77240;BME280;66258;53.170;-2.240;2023-12-29T02:37:15;98794.91;;;16.05;63.32
77240;BME280;66258;53.170;-2.240;2023-12-29T02:39:43;98788.78;;;15.98;62.25
77240;BME280;66258;53.170;-2.240;2023-12-29T02:42:12;98799.22;;;15.89;63.04
77240;BME280;66258;53.170;-2.240;2023-12-29T02:44:41;98775.66;;;15.30;63.89
77240;BME280;66258;53.170;-2.240;2023-12-29T02:47:08;98775.88;;;15.17;65.56
77240;BME280;66258;53.170;-2.240;2023-12-29T02:49:36;98796.84;;;15.69;64.28
77240;BME280;66258;53.170;-2.240;2023-12-29T02:52:04;98792.75;;;16.30;62.33
77240;BME280;66258;53.170;-2.240;2023-12-29T02:54:32;98781.41;;;15.87;62.86
77240;BME280;66258;53.170;-2.240;2023-12-29T02:56:59;98762.28;;;15.52;63.77
77240;BME280;66258;53.170;-2.240;2023-12-29T02:59:27;98783.78;;;15.95;63.34
77240;BME280;66258;53.170;-2.240;2023-12-29T03:01:55;98783.66;;;16.01;62.80
77240;BME280;66258;53.170;-2.240;2023-12-29T03:04:22;98794.50;;;16.48;61.33
77240;BME280;66258;53.170;-2.240;2023-12-29T03:06:50;98794.69;;;15.71;61.37
77240;BME280;66258;53.170;-2.240;2023-12-29T03:09:17;98789.25;;;15.95;61.16
77240;BME280;66258;53.170;-2.240;2023-12-29T03:11:45;98788.19;;;16.47;60.79
77240;BME280;66258;53.170;-2.240;2023-12-29T03:14:15;98790.72;;;15.44;63.46
77240;BME280;66258;53.170;-2.240;2023-12-29T03:16:45;98787.34;;;15.72;63.95
77240;BME280;66258;53.170;-2.240;2023-12-29T03:19:13;98791.72;;;15.85;63.06
77240;BME280;66258;53.170;-2.240;2023-12-29T03:21:41;98788.53;;;15.99;62.30
77240;BME280;66258;53.170;-2.240;2023-12-29T03:24:09;98785.34;;;15.79;62.87
77240;BME280;66258;53.170;-2.240;2023-12-29T03:26:36;98785.28;;;16.37;61.69
77240;BME280;66258;53.170;-2.240;2023-12-29T03:29:04;98790.44;;;16.50;60.39
77240;BME280;66258;53.170;-2.240;2023-12-29T03:31:32;98785.44;;;16.19;61.03
77240;BME280;66258;53.170;-2.240;2023-12-29T03:34:01;98788.25;;;15.54;62.14
77240;BME280;66258;53.170;-2.240;2023-12-29T03:36:30;98787.69;;;15.64;63.13
77240;BME280;66258;53.170;-2.240;2023-12-29T03:38:57;98787.09;;;16.20;61.51
77240;BME280;66258;53.170;-2.240;2023-12-29T03:41:25;98795.31;;;15.97;60.88
77240;BME280;66258;53.170;-2.240;2023-12-29T03:43:52;98773.81;;;15.89;61.96
77240;BME280;66258;53.170;-2.240;2023-12-29T03:46:21;98786.22;;;15.50;62.46
77240;BME280;66258;53.170;-2.240;2023-12-29T03:48:48;98784.72;;;16.00;60.69
77240;BME280;66258;53.170;-2.240;2023-12-29T03:51:18;98789.47;;;15.81;61.76
77240;BME280;66258;53.170;-2.240;2023-12-29T03:53:46;98772.81;;;15.36;62.25
77240;BME280;66258;53.170;-2.240;2023-12-29T03:56:15;98777.44;;;15.47;62.53
77240;BME280;66258;53.170;-2.240;2023-12-29T03:58:42;98775.34;;;16.20;59.78
77240;BME280;66258;53.170;-2.240;2023-12-29T04:01:10;98767.28;;;16.01;59.54
77240;BME280;66258;53.170;-2.240;2023-12-29T04:03:37;98772.53;;;15.56;59.84
77240;BME280;66258;53.170;-2.240;2023-12-29T04:06:06;98774.72;;;15.47;60.94
77240;BME280;66258;53.170;-2.240;2023-12-29T04:08:36;98777.16;;;15.79;59.51
77240;BME280;66258;53.170;-2.240;2023-12-29T04:11:04;98781.97;;;16.00;59.12
77240;BME280;66258;53.170;-2.240;2023-12-29T04:13:32;98786.84;;;15.63;59.61
77240;BME280;66258;53.170;-2.240;2023-12-29T04:15:59;98779.56;;;15.34;60.46
77240;BME280;66258;53.170;-2.240;2023-12-29T04:18:28;98773.38;;;15.38;60.99
77240;BME280;66258;53.170;-2.240;2023-12-29T04:20:56;98784.38;;;15.73;59.58
77240;BME280;66258;53.170;-2.240;2023-12-29T04:23:24;98778.09;;;15.20;60.88
77240;BME280;66258;53.170;-2.240;2023-12-29T04:25:53;98780.94;;;15.66;59.96
77240;BME280;66258;53.170;-2.240;2023-12-29T04:28:21;98779.19;;;15.30;59.73
77240;BME280;66258;53.170;-2.240;2023-12-29T04:30:48;98789.53;;;14.98;60.81
77240;BME280;66258;53.170;-2.240;2023-12-29T04:33:16;98790.13;;;15.42;60.28
77240;BME280;66258;53.170;-2.240;2023-12-29T04:35:44;98804.47;;;15.49;59.29
77240;BME280;66258;53.170;-2.240;2023-12-29T04:38:11;98790.19;;;15.24;59.41
77240;BME280;66258;53.170;-2.240;2023-12-29T04:40:38;98803.88;;;15.47;60.41
77240;BME280;66258;53.170;-2.240;2023-12-29T04:43:09;98803.97;;;15.94;58.73
77240;BME280;66258;53.170;-2.240;2023-12-29T04:45:37;98792.09;;;15.76;59.42
77240;BME280;66258;53.170;-2.240;2023-12-29T04:48:05;98800.47;;;15.52;59.98
77240;BME280;66258;53.170;-2.240;2023-12-29T04:50:33;98796.03;;;15.39;58.61
77240;BME280;66258;53.170;-2.240;2023-12-29T04:53:00;98806.09;;;15.92;58.48
77240;BME280;66258;53.170;-2.240;2023-12-29T04:55:28;98813.09;;;15.88;58.24
77240;BME280;66258;53.170;-2.240;2023-12-29T04:57:56;98815.84;;;15.34;59.34
77240;BME280;66258;53.170;-2.240;2023-12-29T05:00:25;98816.41;;;16.13;57.94
77240;BME280;66258;53.170;-2.240;2023-12-29T05:02:53;98830.88;;;16.37;56.12
77240;BME280;66258;53.170;-2.240;2023-12-29T05:05:21;98813.75;;;15.60;57.01
77240;BME280;66258;53.170;-2.240;2023-12-29T05:07:48;98822.47;;;15.92;57.63
77240;BME280;66258;53.170;-2.240;2023-12-29T05:10:15;98820.31;;;15.82;56.03
77240;BME280;66258;53.170;-2.240;2023-12-29T05:12:43;98822.00;;;15.41;56.92
77240;BME280;66258;53.170;-2.240;2023-12-29T05:15:10;98824.81;;;15.23;56.88
77240;BME280;66258;53.170;-2.240;2023-12-29T05:17:39;98829.41;;;15.53;56.57
77240;BME280;66258;53.170;-2.240;2023-12-29T05:20:09;98833.56;;;15.55;55.87
77240;BME280;66258;53.170;-2.240;2023-12-29T05:22:36;98835.63;;;15.71;55.95
77240;BME280;66258;53.170;-2.240;2023-12-29T05:25:04;98830.41;;;15.70;55.60
77240;BME280;66258;53.170;-2.240;2023-12-29T05:27:32;98832.91;;;15.71;54.61
77240;BME280;66258;53.170;-2.240;2023-12-29T05:30:02;98834.56;;;15.84;55.03
77240;BME280;66258;53.170;-2.240;2023-12-29T05:32:31;98835.25;;;15.79;54.99
77240;BME280;66258;53.170;-2.240;2023-12-29T05:35:00;98838.47;;;15.76;54.92
77240;BME280;66258;53.170;-2.240;2023-12-29T05:37:28;98824.25;;;15.33;56.89
77240;BME280;66258;53.170;-2.240;2023-12-29T05:39:55;98819.78;;;15.50;56.09
77240;BME280;66258;53.170;-2.240;2023-12-29T05:42:23;98824.63;;;15.48;56.53
77240;BME280;66258;53.170;-2.240;2023-12-29T05:44:50;98826.38;;;15.96;54.61
77240;BME280;66258;53.170;-2.240;2023-12-29T05:47:18;98830.28;;;15.76;55.33
77240;BME280;66258;53.170;-2.240;2023-12-29T05:49:46;98834.75;;;15.18;55.48
77240;BME280;66258;53.170;-2.240;2023-12-29T05:52:16;98832.66;;;15.31;56.04
77240;BME280;66258;53.170;-2.240;2023-12-29T05:54:44;98837.22;;;15.19;56.99
77240;BME280;66258;53.170;-2.240;2023-12-29T05:57:13;98849.19;;;15.48;55.42
77240;BME280;66258;53.170;-2.240;2023-12-29T05:59:41;98841.16;;;15.23;56.02
77240;BME280;66258;53.170;-2.240;2023-12-29T06:02:08;98844.75;;;14.94;56.30
77240;BME280;66258;53.170;-2.240;2023-12-29T06:04:37;98844.78;;;15.05;56.75
77240;BME280;66258;53.170;-2.240;2023-12-29T06:07:04;98854.34;;;14.78;57.47
77240;BME280;66258;53.170;-2.240;2023-12-29T06:09:33;98863.66;;;15.48;56.06
77240;BME280;66258;53.170;-2.240;2023-12-29T06:12:00;98863.38;;;15.38;56.15
77240;BME280;66258;53.170;-2.240;2023-12-29T06:14:27;98870.06;;;15.54;55.36
77240;BME280;66258;53.170;-2.240;2023-12-29T06:16:57;98876.69;;;15.76;54.65
77240;BME280;66258;53.170;-2.240;2023-12-29T06:19:24;98875.63;;;15.77;54.46
77240;BME280;66258;53.170;-2.240;2023-12-29T06:21:53;98879.72;;;15.38;54.49
77240;BME280;66258;53.170;-2.240;2023-12-29T06:24:21;98876.84;;;15.22;55.25
77240;BME280;66258;53.170;-2.240;2023-12-29T06:26:51;98885.78;;;15.70;54.53
77240;BME280;66258;53.170;-2.240;2023-12-29T06:29:18;98888.78;;;15.21;55.09
77240;BME280;66258;53.170;-2.240;2023-12-29T06:31:45;98889.31;;;15.29;55.99
77240;BME280;66258;53.170;-2.240;2023-12-29T06:34:13;98880.97;;;15.54;55.28
77240;BME280;66258;53.170;-2.240;2023-12-29T06:36:41;98898.16;;;15.85;54.11
77240;BME280;66258;53.170;-2.240;2023-12-29T06:39:09;98890.41;;;15.70;54.45
77240;BME280;66258;53.170;-2.240;2023-12-29T06:41:36;98889.03;;;15.49;54.61
77240;BME280;66258;53.170;-2.240;2023-12-29T06:44:05;98889.06;;;15.61;54.14
77240;BME280;66258;53.170;-2.240;2023-12-29T06:46:32;98898.34;;;15.41;54.66
77240;BME280;66258;53.170;-2.240;2023-12-29T06:49:00;98902.75;;;15.72;53.78
77240;BME280;66258;53.170;-2.240;2023-12-29T06:51:27;98912.72;;;15.19;54.57
77240;BME280;66258;53.170;-2.240;2023-12-29T06:53:55;98910.69;;;15.44;54.50
77240;BME280;66258;53.170;-2.240;2023-12-29T06:56:23;98909.91;;;15.55;54.39
77240;BME280;66258;53.170;-2.240;2023-12-29T06:58:50;98918.31;;;15.24;54.17
77240;BME280;66258;53.170;-2.240;2023-12-29T07:01:20;98930.38;;;15.64;54.00
77240;BME280;66258;53.170;-2.240;2023-12-29T07:03:47;98911.88;;;15.36;55.31
77240;BME280;66258;53.170;-2.240;2023-12-29T07:06:15;98920.91;;;15.48;55.03
77240;BME280;66258;53.170;-2.240;2023-12-29T07:08:43;98910.69;;;15.44;55.83
77240;BME280;66258;53.170;-2.240;2023-12-29T07:11:10;98915.19;;;15.57;55.15
77240;BME280;66258;53.170;-2.240;2023-12-29T07:13:38;98916.81;;;15.28;55.25
77240;BME280;66258;53.170;-2.240;2023-12-29T07:16:06;98914.00;;;15.64;55.83
77240;BME280;66258;53.170;-2.240;2023-12-29T07:18:35;98928.63;;;15.81;55.21
77240;BME280;66258;53.170;-2.240;2023-12-29T07:21:03;98931.19;;;15.65;55.37
77240;BME280;66258;53.170;-2.240;2023-12-29T07:23:31;98937.00;;;15.98;54.83
77240;BME280;66258;53.170;-2.240;2023-12-29T07:25:59;98935.59;;;15.36;56.65
77240;BME280;66258;53.170;-2.240;2023-12-29T07:28:26;98929.16;;;15.60;56.48
77240;BME280;66258;53.170;-2.240;2023-12-29T07:30:54;98923.34;;;15.38;57.64
77240;BME280;66258;53.170;-2.240;2023-12-29T07:33:21;98927.88;;;15.63;56.69
77240;BME280;66258;53.170;-2.240;2023-12-29T07:35:52;98921.84;;;15.72;56.55
77240;BME280;66258;53.170;-2.240;2023-12-29T07:38:20;98937.03;;;15.68;57.17
77240;BME280;66258;53.170;-2.240;2023-12-29T07:40:48;98941.91;;;15.48;57.87
77240;BME280;66258;53.170;-2.240;2023-12-29T07:43:15;98944.13;;;15.58;57.60
77240;BME280;66258;53.170;-2.240;2023-12-29T07:45:43;98936.81;;;15.52;57.92
77240;BME280;66258;53.170;-2.240;2023-12-29T07:48:11;98925.13;;;15.33;58.93
77240;BME280;66258;53.170;-2.240;2023-12-29T07:50:39;98941.41;;;15.58;58.64
77240;BME280;66258;53.170;-2.240;2023-12-29T07:53:08;98937.38;;;15.42;59.17
77240;BME280;66258;53.170;-2.240;2023-12-29T07:55:37;98941.63;;;15.98;57.42
77240;BME280;66258;53.170;-2.240;2023-12-29T07:58:05;98951.16;;;15.47;58.80
77240;BME280;66258;53.170;-2.240;2023-12-29T08:00:33;98958.59;;;16.11;56.77
77240;BME280;66258;53.170;-2.240;2023-12-29T08:03:01;98956.03;;;15.87;57.82
77240;BME280;66258;53.170;-2.240;2023-12-29T08:05:30;98958.97;;;16.27;56.29
77240;BME280;66258;53.170;-2.240;2023-12-29T08:07:57;98966.97;;;15.87;57.00
77240;BME280;66258;53.170;-2.240;2023-12-29T08:10:27;98971.78;;;16.14;56.52
77240;BME280;66258;53.170;-2.240;2023-12-29T08:12:55;98977.84;;;16.17;56.29
77240;BME280;66258;53.170;-2.240;2023-12-29T08:15:22;98989.69;;;16.10;56.58
77240;BME280;66258;53.170;-2.240;2023-12-29T08:17:49;98991.34;;;16.11;55.93
77240;BME280;66258;53.170;-2.240;2023-12-29T08:20:16;98989.47;;;16.24;55.96
77240;BME280;66258;53.170;-2.240;2023-12-29T08:22:44;98992.69;;;16.21;55.84
77240;BME280;66258;53.170;-2.240;2023-12-29T08:25:12;98990.91;;;16.26;55.32
77240;BME280;66258;53.170;-2.240;2023-12-29T08:27:42;98986.97;;;16.22;55.74
77240;BME280;66258;53.170;-2.240;2023-12-29T08:30:10;98978.72;;;15.87;57.08
77240;BME280;66258;53.170;-2.240;2023-12-29T08:32:37;98985.31;;;15.79;57.76
77240;BME280;66258;53.170;-2.240;2023-12-29T08:35:05;98979.16;;;15.54;57.99
77240;BME280;66258;53.170;-2.240;2023-12-29T08:37:34;98980.91;;;16.08;57.36
77240;BME280;66258;53.170;-2.240;2023-12-29T08:40:02;98980.44;;;16.23;56.57
77240;BME280;66258;53.170;-2.240;2023-12-29T08:42:30;98991.03;;;16.31;56.28
77240;BME280;66258;53.170;-2.240;2023-12-29T08:45:00;98996.97;;;16.28;56.34
77240;BME280;66258;53.170;-2.240;2023-12-29T08:47:27;99001.66;;;16.09;56.31
77240;BME280;66258;53.170;-2.240;2023-12-29T08:49:54;98999.00;;;15.61;57.89
77240;BME280;66258;53.170;-2.240;2023-12-29T08:52:23;98998.03;;;15.74;57.62
77240;BME280;66258;53.170;-2.240;2023-12-29T08:54:51;98998.56;;;16.06;57.22
77240;BME280;66258;53.170;-2.240;2023-12-29T08:57:19;99005.50;;;15.78;58.36
77240;BME280;66258;53.170;-2.240;2023-12-29T08:59:46;99006.75;;;16.06;58.81
77240;BME280;66258;53.170;-2.240;2023-12-29T09:02:16;99010.38;;;16.18;58.03
77240;BME280;66258;53.170;-2.240;2023-12-29T09:04:44;99020.84;;;16.44;57.32
77240;BME280;66258;53.170;-2.240;2023-12-29T09:07:12;99019.16;;;16.43;57.27
77240;BME280;66258;53.170;-2.240;2023-12-29T09:09:39;99025.28;;;16.04;58.18
77240;BME280;66258;53.170;-2.240;2023-12-29T09:12:07;99025.69;;;16.19;57.95
77240;BME280;66258;53.170;-2.240;2023-12-29T09:14:35;99037.47;;;16.43;57.76
77240;BME280;66258;53.170;-2.240;2023-12-29T09:17:03;99028.66;;;15.88;59.13
77240;BME280;66258;53.170;-2.240;2023-12-29T09:19:32;99033.91;;;16.01;58.66
77240;BME280;66258;53.170;-2.240;2023-12-29T09:22:06;99026.25;;;16.09;59.10
77240;BME280;66258;53.170;-2.240;2023-12-29T09:24:34;99029.72;;;16.28;59.12
77240;BME280;66258;53.170;-2.240;2023-12-29T09:27:02;99033.97;;;16.24;59.18
77240;BME280;66258;53.170;-2.240;2023-12-29T09:29:29;99033.63;;;15.79;60.82
77240;BME280;66258;53.170;-2.240;2023-12-29T09:31:56;99031.34;;;16.06;59.91
77240;BME280;66258;53.170;-2.240;2023-12-29T09:34:24;99024.34;;;16.10;60.13
77240;BME280;66258;53.170;-2.240;2023-12-29T09:36:53;99033.88;;;16.31;59.73
77240;BME280;66258;53.170;-2.240;2023-12-29T09:39:21;99037.59;;;16.36;59.40
77240;BME280;66258;53.170;-2.240;2023-12-29T09:41:51;99042.50;;;16.69;58.22
77240;BME280;66258;53.170;-2.240;2023-12-29T09:44:20;99054.84;;;16.60;57.78
77240;BME280;66258;53.170;-2.240;2023-12-29T09:46:50;99053.34;;;16.76;58.31
77240;BME280;66258;53.170;-2.240;2023-12-29T09:49:20;99041.94;;;16.79;57.61
77240;BME280;66258;53.170;-2.240;2023-12-29T09:51:48;99053.78;;;17.08;56.74
77240;BME280;66258;53.170;-2.240;2023-12-29T09:54:18;99059.63;;;17.00;57.04
77240;BME280;66258;53.170;-2.240;2023-12-29T09:56:45;99071.63;;;17.10;56.30
77240;BME280;66258;53.170;-2.240;2023-12-29T09:59:14;99068.53;;;17.18;55.80
77240;BME280;66258;53.170;-2.240;2023-12-29T10:01:45;99060.53;;;17.40;54.99
77240;BME280;66258;53.170;-2.240;2023-12-29T10:04:14;99073.97;;;17.30;54.57
77240;BME280;66258;53.170;-2.240;2023-12-29T10:06:44;99072.91;;;17.31;54.19
77240;BME280;66258;53.170;-2.240;2023-12-29T10:09:17;99073.41;;;17.05;54.49
77240;BME280;66258;53.170;-2.240;2023-12-29T10:11:48;99068.28;;;17.08;54.45
77240;BME280;66258;53.170;-2.240;2023-12-29T10:14:22;99068.28;;;17.08;54.38
77240;BME280;66258;53.170;-2.240;2023-12-29T10:16:53;99064.97;;;17.06;54.51
77240;BME280;66258;53.170;-2.240;2023-12-29T10:19:37;99081.25;;;16.90;55.02
77240;BME280;66258;53.170;-2.240;2023-12-29T10:22:11;99078.88;;;17.05;55.25
77240;BME280;66258;53.170;-2.240;2023-12-29T10:24:45;99077.34;;;16.97;55.87
77240;BME280;66258;53.170;-2.240;2023-12-29T10:27:13;99084.69;;;16.85;56.37
77240;BME280;66258;53.170;-2.240;2023-12-29T10:29:41;99079.13;;;16.92;56.88
77240;BME280;66258;53.170;-2.240;2023-12-29T10:32:09;99076.16;;;16.81;56.46
77240;BME280;66258;53.170;-2.240;2023-12-29T10:34:37;99085.78;;;17.07;56.57
77240;BME280;66258;53.170;-2.240;2023-12-29T10:37:04;99090.41;;;17.07;56.96
77240;BME280;66258;53.170;-2.240;2023-12-29T10:39:33;99084.34;;;17.05;56.74
77240;BME280;66258;53.170;-2.240;2023-12-29T10:45:06;99087.28;;;17.27;57.01
77240;BME280;66258;53.170;-2.240;2023-12-29T10:47:35;99092.19;;;17.36;56.80
77240;BME280;66258;53.170;-2.240;2023-12-29T10:50:03;99094.06;;;17.36;56.96
77240;BME280;66258;53.170;-2.240;2023-12-29T10:52:31;99101.34;;;17.42;56.56
77240;BME280;66258;53.170;-2.240;2023-12-29T10:55:06;99108.84;;;17.11;57.49
77240;BME280;66258;53.170;-2.240;2023-12-29T10:57:35;99109.19;;;17.15;58.14
77240;BME280;66258;53.170;-2.240;2023-12-29T11:00:02;99103.72;;;17.27;57.75
77240;BME280;66258;53.170;-2.240;2023-12-29T11:02:31;99106.19;;;17.51;57.08
77240;BME280;66258;53.170;-2.240;2023-12-29T11:05:03;99104.28;;;17.64;56.75
77240;BME280;66258;53.170;-2.240;2023-12-29T11:07:35;99104.25;;;17.75;57.07
77240;BME280;66258;53.170;-2.240;2023-12-29T11:10:07;99099.72;;;17.81;56.60
77240;BME280;66258;53.170;-2.240;2023-12-29T11:12:36;99098.13;;;17.97;55.75
77240;BME280;66258;53.170;-2.240;2023-12-29T11:15:05;99101.63;;;18.09;55.67
77240;BME280;66258;53.170;-2.240;2023-12-29T11:17:35;99092.94;;;18.12;55.64
77240;BME280;66258;53.170;-2.240;2023-12-29T11:20:04;99090.34;;;18.05;55.75
77240;BME280;66258;53.170;-2.240;2023-12-29T11:22:32;99098.47;;;18.00;56.12
77240;BME280;66258;53.170;-2.240;2023-12-29T11:25:00;99098.50;;;18.17;55.96
77240;BME280;66258;53.170;-2.240;2023-12-29T11:27:29;99088.41;;;18.34;56.31
77240;BME280;66258;53.170;-2.240;2023-12-29T11:29:57;99081.44;;;18.27;55.86
77240;BME280;66258;53.170;-2.240;2023-12-29T11:32:47;99080.50;;;18.21;55.72
77240;BME280;66258;53.170;-2.240;2023-12-29T11:35:22;99077.75;;;18.04;56.43
77240;BME280;66258;53.170;-2.240;2023-12-29T11:38:18;99076.31;;;18.02;56.62
77240;BME280;66258;53.170;-2.240;2023-12-29T11:40:52;99067.66;;;18.22;56.08
77240;BME280;66258;53.170;-2.240;2023-12-29T11:43:24;99083.63;;;18.13;56.21
77240;BME280;66258;53.170;-2.240;2023-12-29T11:45:51;99080.91;;;18.30;56.01
77240;BME280;66258;53.170;-2.240;2023-12-29T11:51:31;99106.56;;;17.43;57.46
77240;BME280;66258;53.170;-2.240;2023-12-29T11:53:58;99120.38;;;17.89;57.85
77240;BME280;66258;53.170;-2.240;2023-12-29T11:56:36;99117.75;;;17.94;57.72
77240;BME280;66258;53.170;-2.240;2023-12-29T11:59:14;99099.06;;;17.39;58.81
77240;BME280;66258;53.170;-2.240;2023-12-29T12:01:42;99108.13;;;17.91;58.83
77240;BME280;66258;53.170;-2.240;2023-12-29T12:04:41;99094.25;;;18.09;57.81
77240;BME280;66258;53.170;-2.240;2023-12-29T12:07:17;99089.69;;;18.43;58.00
77240;BME280;66258;53.170;-2.240;2023-12-29T12:10:28;99082.34;;;18.61;56.77
77240;BME280;66258;53.170;-2.240;2023-12-29T12:12:58;99081.19;;;18.90;55.28
77240;BME280;66258;53.170;-2.240;2023-12-29T12:15:32;99065.03;;;19.10;54.78
77240;BME280;66258;53.170;-2.240;2023-12-29T12:18:01;99072.31;;;19.21;54.56
77240;BME280;66258;53.170;-2.240;2023-12-29T12:20:29;99075.69;;;18.90;53.66
77240;BME280;66258;53.170;-2.240;2023-12-29T12:22:59;99079.78;;;18.26;55.00
77240;BME280;66258;53.170;-2.240;2023-12-29T12:25:31;99085.06;;;18.61;55.41
77240;BME280;66258;53.170;-2.240;2023-12-29T12:28:01;99086.16;;;18.60;55.24
77240;BME280;66258;53.170;-2.240;2023-12-29T12:30:32;99096.03;;;18.77;55.47
77240;BME280;66258;53.170;-2.240;2023-12-29T12:33:01;99092.56;;;18.65;55.39
77240;BME280;66258;53.170;-2.240;2023-12-29T12:35:30;99094.97;;;18.62;55.78
77240;BME280;66258;53.170;-2.240;2023-12-29T12:38:10;99080.06;;;18.58;55.51
77240;BME280;66258;53.170;-2.240;2023-12-29T12:40:38;99069.22;;;18.63;55.39
77240;BME280;66258;53.170;-2.240;2023-12-29T12:43:06;99064.19;;;18.26;55.75
77240;BME280;66258;53.170;-2.240;2023-12-29T12:45:35;99058.88;;;18.36;55.73
77240;BME280;66258;53.170;-2.240;2023-12-29T12:48:13;99062.28;;;18.43;55.62
77240;BME280;66258;53.170;-2.240;2023-12-29T12:50:43;99055.81;;;18.49;55.23
77240;BME280;66258;53.170;-2.240;2023-12-29T12:53:14;99059.59;;;18.32;55.77
77240;BME280;66258;53.170;-2.240;2023-12-29T12:55:42;99066.59;;;18.39;55.46
77240;BME280;66258;53.170;-2.240;2023-12-29T12:58:09;99054.72;;;18.50;55.25
77240;BME280;66258;53.170;-2.240;2023-12-29T13:00:37;99050.25;;;18.44;54.88
77240;BME280;66258;53.170;-2.240;2023-12-29T13:03:04;99056.47;;;18.40;55.16
77240;BME280;66258;53.170;-2.240;2023-12-29T13:05:31;99055.84;;;18.21;55.13